KLGB/LGB METAR and TAF weather

Enter ICAO airport designator
Station Type Date Time Source
KLGB METAR 2020/09/21 08:29 UTC NOAA

KLGB 210829Z AUTO 00000KT 7SM OVC009 18/17 A2990 RMK AO2 T01830167


Station Type Date Time Source
KLGB Decoded METAR 2020/09/21 08:29 UTC NOAA

LONG BEACH AIRPORT, CA, United States (KLGB) 33-49N 118-09W 10M
Sep 21, 2020 - 04:29 AM EDT / 2020.09.21 0829 UTC
Wind: Calm:0
Visibility: 7 mile(s):0
Sky conditions: overcast
Temperature: 64.9 F (18.3 C)
Dew Point: 62.1 F (16.7 C)
Relative Humidity: 90%
Pressure (altimeter): 29.9 in. Hg (1012 hPa)
ob: KLGB 210829Z AUTO 00000KT 7SM OVC009 18/17 A2990 RMK AO2 T01830167
cycle: 8

Station Type Date Time Source
KLGB TAF 2020/09/21 08:33 UTC NOAA

TAF
AMD KLGB 210731Z 2108/2206 12005KT P6SM BKN011
FM211000 VRB03KT 6SM BR BKN008
FM211700 20006KT P6SM SKC
FM212300 30006KT P6SM SKC
FM220400 VRB03KT P6SM SKC

Example: see airport list